Time;durP1;ratioP1;P1;durP2;ratioP2;P2;SDS_P1;SDS_P2;PMS_P1;PMS_P2;Temp;Humidity;BMP_temperature;BMP_pressure;BME280_temperature;BME280_humidity;BME280_pressure;Samples;Min_cycle;Max_cycle;Signal;HPM_P1;HPM_P2
2021/01/18 00:01:16;;;;;;;2.75;1.50;;;;;;;;;;5091491;28;20506;-67
2021/01/18 00:03:42;;;;;;;3.03;2.25;;;;;;;;;;5091013;28;20031;-68
2021/01/18 00:06:08;;;;;;;1.10;1.00;;;;;;;;;;5091205;28;20032;-68
2021/01/18 00:08:34;;;;;;;2.75;1.85;;;;;;;;;;5090654;28;20032;-68
2021/01/18 00:11:01;;;;;;;1.27;1.10;;;;;;;;;;5090874;28;20028;-68
2021/01/18 00:13:27;;;;;;;1.48;1.23;;;;;;;;;;5090786;28;20039;-68
2021/01/18 00:15:53;;;;;;;2.10;1.35;;;;;;;;;;5091486;28;20028;-68
2021/01/18 00:18:19;;;;;;;1.48;1.38;;;;;;;;;;5089927;28;20055;-68
2021/01/18 00:20:45;;;;;;;4.30;1.48;;;;;;;;;;5091406;28;20057;-68
2021/01/18 00:23:11;;;;;;;1.08;0.98;;;;;;;;;;5091292;28;20036;-68
2021/01/18 00:25:37;;;;;;;1.38;1.20;;;;;;;;;;5089740;28;20136;-67
2021/01/18 00:28:03;;;;;;;2.50;1.92;;;;;;;;;;5091090;28;20446;-68
2021/01/18 00:30:29;;;;;;;1.05;0.98;;;;;;;;;;5090393;28;20039;-68
2021/01/18 00:32:59;;;;;;;1.52;1.10;;;;;;;;;;5090919;28;20024;-68
2021/01/18 00:35:27;;;;;;;1.98;1.20;;;;;;;;;;5089406;28;20189;-68
2021/01/18 00:37:53;;;;;;;0.90;0.90;;;;;;;;;;5075456;28;20465;-68
2021/01/18 00:40:20;;;;;;;2.72;2.35;;;;;;;;;;5070047;28;20048;-67
2021/01/18 00:42:47;;;;;;;1.23;1.13;;;;;;;;;;5070374;28;20059;-68
2021/01/18 00:45:14;;;;;;;2.60;1.25;;;;;;;;;;5070626;28;20028;-68
2021/01/18 00:47:50;;;;;;;1.83;1.17;;;;;;;;;;5069966;28;20041;-68
2021/01/18 00:50:17;;;;;;;3.03;1.98;;;;;;;;;;5069927;28;20036;-68
2021/01/18 00:52:44;;;;;;;1.50;1.17;;;;;;;;;;5069614;28;20422;-68
2021/01/18 00:55:14;;;;;;;2.42;1.08;;;;;;;;;;5070123;28;20591;-68
2021/01/18 00:57:40;;;;;;;1.45;1.25;;;;;;;;;;5069717;28;20028;-68
2021/01/18 01:00:08;;;;;;;1.65;1.40;;;;;;;;;;5070492;28;20032;-68
2021/01/18 01:02:37;;;;;;;1.77;1.10;;;;;;;;;;5069950;28;20055;-68
2021/01/18 01:05:04;;;;;;;2.53;1.55;;;;;;;;;;5070183;28;20031;-68
2021/01/18 01:07:30;;;;;;;1.40;1.25;;;;;;;;;;5069316;28;20040;-68
2021/01/18 01:09:56;;;;;;;1.10;0.98;;;;;;;;;;5070317;28;20229;-68
2021/01/18 01:12:22;;;;;;;2.55;1.70;;;;;;;;;;5069767;28;20029;-68
2021/01/18 01:14:49;;;;;;;1.23;0.80;;;;;;;;;;5069892;28;20111;-68
2021/01/18 01:17:15;;;;;;;2.20;0.98;;;;;;;;;;5069559;28;20041;-67
2021/01/18 01:19:41;;;;;;;1.50;1.40;;;;;;;;;;5069671;28;20024;-68
2021/01/18 01:22:07;;;;;;;1.58;1.48;;;;;;;;;;5069865;28;20025;-68
2021/01/18 01:24:33;;;;;;;1.73;0.93;;;;;;;;;;5069061;28;20056;-67
2021/01/18 01:26:59;;;;;;;3.00;1.52;;;;;;;;;;5070032;28;20032;-67
2021/01/18 01:29:25;;;;;;;3.72;1.55;;;;;;;;;;5069079;28;20035;-66
2021/01/18 01:31:51;;;;;;;1.33;1.05;;;;;;;;;;5069822;28;20033;-66
2021/01/18 01:34:17;;;;;;;1.77;1.13;;;;;;;;;;5069226;28;20031;-66
2021/01/18 01:36:44;;;;;;;1.67;1.17;;;;;;;;;;5069030;28;20034;-67
2021/01/18 01:39:10;;;;;;;1.40;1.13;;;;;;;;;;5069572;28;20024;-67
2021/01/18 01:41:36;;;;;;;1.88;1.08;;;;;;;;;;5069232;28;20033;-67
2021/01/18 01:44:02;;;;;;;2.33;1.70;;;;;;;;;;5069670;28;20043;-67
2021/01/18 01:46:28;;;;;;;0.82;0.70;;;;;;;;;;5068846;28;20075;-66
2021/01/18 01:48:55;;;;;;;2.13;0.82;;;;;;;;;;5069659;28;20032;-67
2021/01/18 01:51:22;;;;;;;1.35;0.90;;;;;;;;;;5069027;28;20465;-66
2021/01/18 01:53:48;;;;;;;1.05;0.80;;;;;;;;;;5069665;28;20021;-67
2021/01/18 01:56:15;;;;;;;1.42;1.33;;;;;;;;;;5069533;28;20032;-66
2021/01/18 01:58:41;;;;;;;0.70;0.70;;;;;;;;;;5069112;28;20028;-67
2021/01/18 02:01:07;;;;;;;1.38;0.70;;;;;;;;;;5069695;28;20116;-67
2021/01/18 02:03:41;;;;;;;1.15;1.05;;;;;;;;;;5068282;28;20036;-67
2021/01/18 02:06:07;;;;;;;0.60;0.47;;;;;;;;;;5069406;28;20044;-67
2021/01/18 02:08:33;;;;;;;1.50;1.02;;;;;;;;;;5068514;28;20036;-66
2021/01/18 02:10:59;;;;;;;0.95;0.85;;;;;;;;;;5068663;28;20117;-67
2021/01/18 02:13:44;;;;;;;1.15;0.98;;;;;;;;;;5068499;28;20029;-67
2021/01/18 02:16:18;;;;;;;0.98;0.93;;;;;;;;;;5068677;28;20025;-67
2021/01/18 02:18:44;;;;;;;;;;;;;;;;;;5107391;28;20054;-67
2021/01/18 02:21:16;;;;;;;1.58;1.02;;;;;;;;;;5109497;28;20002;-67
2021/01/18 02:24:01;;;;;;;1.10;0.98;;;;;;;;;;5108663;28;20036;-67
2021/01/18 02:26:30;;;;;;;1.60;1.25;;;;;;;;;;5108897;28;20122;-67
2021/01/18 02:29:02;;;;;;;1.17;0.90;;;;;;;;;;5109368;28;20027;-67
2021/01/18 02:31:31;;;;;;;1.10;1.00;;;;;;;;;;5109503;28;20493;-67
2021/01/18 02:33:57;;;;;;;0.55;0.55;;;;;;;;;;5109291;28;20059;-67
2021/01/18 02:36:29;;;;;;;0.98;0.80;;;;;;;;;;5104917;28;20099;-66
2021/01/18 02:39:14;;;;;;;1.35;0.80;;;;;;;;;;5088953;28;20020;-67
2021/01/18 02:41:50;;;;;;;0.80;0.80;;;;;;;;;;5088524;28;20028;-67
2021/01/18 02:44:20;;;;;;;1.20;0.82;;;;;;;;;;5088282;28;20574;-66
2021/01/18 02:46:48;;;;;;;1.50;0.90;;;;;;;;;;5088781;28;20036;-67
2021/01/18 02:49:16;;;;;;;0.70;0.70;;;;;;;;;;5088673;28;20032;-66
2021/01/18 02:52:01;;;;;;;1.15;0.90;;;;;;;;;;5089188;28;20028;-67
2021/01/18 02:54:27;;;;;;;0.88;0.88;;;;;;;;;;5088022;28;20024;-67
2021/01/18 02:56:54;;;;;;;1.92;1.13;;;;;;;;;;5088838;28;20103;-67
2021/01/18 02:59:20;;;;;;;0.90;0.50;;;;;;;;;;5088095;28;20020;-66
2021/01/18 03:02:03;;;;;;;1.20;0.68;;;;;;;;;;5088553;28;20028;-67
2021/01/18 03:04:48;;;;;;;1.05;0.77;;;;;;;;;;5088045;28;20062;-67
2021/01/18 03:07:32;;;;;;;1.08;0.93;;;;;;;;;;5088424;28;20032;-67
2021/01/18 03:10:08;;;;;;;0.80;0.70;;;;;;;;;;5089330;28;20433;-67
2021/01/18 03:12:55;;;;;;;1.08;0.80;;;;;;;;;;5088251;28;20455;-67
2021/01/18 03:15:22;;;;;;;1.05;1.02;;;;;;;;;;5088924;28;20027;-67
2021/01/18 03:17:50;;;;;;;0.95;0.77;;;;;;;;;;5088077;28;20123;-67
2021/01/18 03:20:16;;;;;;;1.15;0.85;;;;;;;;;;5088584;28;20036;-66
2021/01/18 03:22:42;;;;;;;0.73;0.73;;;;;;;;;;5089830;28;20024;-66
2021/01/18 03:25:09;;;;;;;1.98;0.60;;;;;;;;;;5092337;28;20398;-67
2021/01/18 03:27:48;;;;;;;0.60;0.60;;;;;;;;;;5091108;28;20028;-67
2021/01/18 03:30:15;;;;;;;0.85;0.85;;;;;;;;;;5092500;28;20123;-66
2021/01/18 03:32:41;;;;;;;0.70;0.70;;;;;;;;;;5092030;28;20047;-67
2021/01/18 03:35:07;;;;;;;1.65;1.52;;;;;;;;;;5091446;28;20063;-67
2021/01/18 03:37:33;;;;;;;0.50;0.50;;;;;;;;;;5104012;28;20550;-66
2021/01/18 03:39:59;;;;;;;1.08;0.70;;;;;;;;;;5112599;28;20058;-67
2021/01/18 03:42:25;;;;;;;0.60;0.60;;;;;;;;;;5111286;28;20060;-66
2021/01/18 03:44:51;;;;;;;1.40;0.93;;;;;;;;;;5112256;28;20063;-67
2021/01/18 03:47:17;;;;;;;0.70;0.70;;;;;;;;;;5112405;28;20043;-67
2021/01/18 03:49:43;;;;;;;0.57;0.50;;;;;;;;;;5112147;28;20027;-67
2021/01/18 03:52:09;;;;;;;0.63;0.43;;;;;;;;;;5113022;28;20485;-67
2021/01/18 03:54:36;;;;;;;0.60;0.45;;;;;;;;;;5111068;28;20405;-67
2021/01/18 03:57:02;;;;;;;0.65;0.40;;;;;;;;;;5112632;28;20181;-67
2021/01/18 03:59:28;;;;;;;0.40;0.40;;;;;;;;;;5111187;28;20027;-67
2021/01/18 04:01:54;;;;;;;2.08;0.70;;;;;;;;;;5112164;28;20030;-67
2021/01/18 04:04:20;;;;;;;1.77;0.82;;;;;;;;;;5111031;28;20031;-66
2021/01/18 04:06:46;;;;;;;0.40;0.40;;;;;;;;;;5112022;28;20040;-67
2021/01/18 04:09:12;;;;;;;0.82;0.50;;;;;;;;;;5111935;28;20066;-67
2021/01/18 04:11:38;;;;;;;0.73;0.60;;;;;;;;;;5111534;28;20057;-67
2021/01/18 04:14:04;;;;;;;0.52;0.40;;;;;;;;;;5111983;28;20039;-67
2021/01/18 04:16:30;;;;;;;0.50;0.50;;;;;;;;;;5111072;28;20028;-66
2021/01/18 04:18:57;;;;;;;1.58;0.73;;;;;;;;;;5111805;28;20042;-67
2021/01/18 04:21:23;;;;;;;0.60;0.55;;;;;;;;;;5110897;28;20024;-66
2021/01/18 04:23:49;;;;;;;1.27;0.98;;;;;;;;;;5111266;28;20031;-67
2021/01/18 04:26:15;;;;;;;0.45;0.40;;;;;;;;;;5111298;28;20130;-66
2021/01/18 04:28:41;;;;;;;0.43;0.30;;;;;;;;;;5111388;28;20024;-67
2021/01/18 04:31:07;;;;;;;0.80;0.77;;;;;;;;;;5111267;28;20027;-67
2021/01/18 04:33:33;;;;;;;0.77;0.70;;;;;;;;;;5110586;28;20092;-67
2021/01/18 04:35:59;;;;;;;0.30;0.30;;;;;;;;;;5110760;28;20042;-68
2021/01/18 04:38:25;;;;;;;0.63;0.40;;;;;;;;;;5070608;28;20483;-68
2021/01/18 04:40:52;;;;;;;0.38;0.38;;;;;;;;;;5070392;28;20028;-68
2021/01/18 04:43:18;;;;;;;0.45;0.35;;;;;;;;;;5070062;28;20131;-67
2021/01/18 04:45:44;;;;;;;0.47;0.47;;;;;;;;;;5069927;28;20032;-68
2021/01/18 04:48:11;;;;;;;0.57;0.40;;;;;;;;;;5070837;28;20031;-68
2021/01/18 04:50:37;;;;;;;0.75;0.30;;;;;;;;;;5070096;28;20094;-68
2021/01/18 04:53:15;;;;;;;0.85;0.70;;;;;;;;;;5070078;28;20475;-68
2021/01/18 04:55:44;;;;;;;0.90;0.73;;;;;;;;;;5070170;28;20043;-68
2021/01/18 04:58:17;;;;;;;0.30;0.30;;;;;;;;;;5070227;28;20063;-68
2021/01/18 05:00:44;;;;;;;0.40;0.40;;;;;;;;;;5070339;28;20040;-68
2021/01/18 05:03:12;;;;;;;0.30;0.30;;;;;;;;;;5070277;28;20075;-68
2021/01/18 05:05:58;;;;;;;0.88;0.60;;;;;;;;;;5069216;28;20353;-68
2021/01/18 05:08:43;;;;;;;0.50;0.50;;;;;;;;;;5048148;28;20481;-67
2021/01/18 05:11:13;;;;;;;0.40;0.40;;;;;;;;;;5070111;28;20032;-68
2021/01/18 05:13:39;;;;;;;0.47;0.47;;;;;;;;;;5068837;28;20131;-68
2021/01/18 05:16:07;;;;;;;1.17;0.75;;;;;;;;;;5070049;28;20078;-68
2021/01/18 05:18:34;;;;;;;0.50;0.50;;;;;;;;;;5086453;28;20056;-68
2021/01/18 05:21:04;;;;;;;0.38;0.30;;;;;;;;;;5090368;28;20224;-68
2021/01/18 05:23:30;;;;;;;0.70;0.43;;;;;;;;;;5088990;28;20436;-68
2021/01/18 05:26:15;;;;;;;0.52;0.45;;;;;;;;;;5089878;28;20117;-68
2021/01/18 05:28:45;;;;;;;0.40;0.40;;;;;;;;;;5090103;28;20028;-68
2021/01/18 05:31:11;;;;;;;0.80;0.60;;;;;;;;;;5090150;28;20032;-68
2021/01/18 05:33:38;;;;;;;1.33;0.73;;;;;;;;;;5089234;28;20032;-68
2021/01/18 05:36:04;;;;;;;0.25;0.25;;;;;;;;;;5089472;28;20035;-68
2021/01/18 05:38:31;;;;;;;0.30;0.30;;;;;;;;;;5088830;28;20078;-68
2021/01/18 05:40:59;;;;;;;0.40;0.40;;;;;;;;;;5090292;28;20093;-68
2021/01/18 05:43:33;;;;;;;1.50;1.10;;;;;;;;;;5089396;28;20510;-68
2021/01/18 05:46:04;;;;;;;0.70;0.63;;;;;;;;;;5088097;28;20086;-66
2021/01/18 05:48:30;;;;;;;0.57;0.40;;;;;;;;;;5089339;28;20055;-66
2021/01/18 05:50:57;;;;;;;0.55;0.50;;;;;;;;;;5089349;28;20107;-66
2021/01/18 05:53:24;;;;;;;1.17;0.70;;;;;;;;;;5088952;28;20398;-66
2021/01/18 05:55:50;;;;;;;0.55;0.40;;;;;;;;;;5089379;28;20028;-66
2021/01/18 05:58:36;;;;;;;0.50;0.40;;;;;;;;;;5089804;28;20124;-65
2021/01/18 06:01:02;;;;;;;0.38;0.38;;;;;;;;;;5089651;28;20024;-66
2021/01/18 06:03:29;;;;;;;0.52;0.40;;;;;;;;;;5089318;28;20111;-66
2021/01/18 06:05:55;;;;;;;0.30;0.30;;;;;;;;;;5089007;28;20098;-66
2021/01/18 06:08:22;;;;;;;0.57;0.40;;;;;;;;;;5089193;28;20024;-66
2021/01/18 06:10:49;;;;;;;0.43;0.43;;;;;;;;;;5089487;28;20145;-67
2021/01/18 06:13:24;;;;;;;0.25;0.20;;;;;;;;;;5089491;28;20485;-66
2021/01/18 06:15:53;;;;;;;0.45;0.43;;;;;;;;;;5089069;28;20531;-66
2021/01/18 06:18:19;;;;;;;0.70;0.70;;;;;;;;;;5104191;28;20470;-66
2021/01/18 06:20:45;;;;;;;0.30;0.30;;;;;;;;;;5109642;28;20019;-66
2021/01/18 06:23:20;;;;;;;0.30;0.30;;;;;;;;;;5109740;28;20027;-67
2021/01/18 06:25:48;;;;;;;0.63;0.40;;;;;;;;;;5109484;28;20071;-66
2021/01/18 06:28:33;;;;;;;0.45;0.40;;;;;;;;;;5109071;28;20028;-65
2021/01/18 06:31:01;;;;;;;0.30;0.20;;;;;;;;;;5109396;28;20027;-67
2021/01/18 06:33:40;;;;;;;0.45;0.40;;;;;;;;;;5108941;28;20028;-66
2021/01/18 06:36:14;;;;;;;0.50;0.50;;;;;;;;;;5108149;28;20032;-66
2021/01/18 06:38:41;;;;;;;0.50;0.50;;;;;;;;;;5068530;28;20169;-66
2021/01/18 06:41:08;;;;;;;0.30;0.30;;;;;;;;;;5069141;28;20043;-66
2021/01/18 06:43:34;;;;;;;0.22;0.22;;;;;;;;;;5068377;28;20036;-66
2021/01/18 06:46:13;;;;;;;0.50;0.40;;;;;;;;;;5069112;28;20090;-66
2021/01/18 06:48:39;;;;;;;0.52;0.50;;;;;;;;;;5072780;28;20451;-67
2021/01/18 06:51:12;;;;;;;0.35;0.35;;;;;;;;;;5069731;28;20035;-67
2021/01/18 06:53:42;;;;;;;0.80;0.70;;;;;;;;;;5066940;28;20032;-67
2021/01/18 06:56:23;;;;;;;1.52;0.70;;;;;;;;;;5085884;28;20026;-67
2021/01/18 06:58:52;;;;;;;0.50;0.50;;;;;;;;;;5068117;28;20039;-67
2021/01/18 07:01:31;;;;;;;0.73;0.70;;;;;;;;;;5066689;28;20028;-66
2021/01/18 07:04:06;;;;;;;0.40;0.40;;;;;;;;;;5075973;28;20056;-66
2021/01/18 07:06:39;;;;;;;0.52;0.40;;;;;;;;;;5072290;28;20081;-67
2021/01/18 07:09:09;;;;;;;4.85;0.80;;;;;;;;;;5069204;28;20376;-66
2021/01/18 07:11:36;;;;;;;0.55;0.50;;;;;;;;;;5071770;28;20032;-67
2021/01/18 07:14:06;;;;;;;0.90;0.60;;;;;;;;;;5088041;28;20243;-67
2021/01/18 07:16:32;;;;;;;0.40;0.40;;;;;;;;;;5085584;28;20028;-67
2021/01/18 07:19:00;;;;;;;0.95;0.77;;;;;;;;;;5077940;28;20032;-66
2021/01/18 07:21:29;;;;;;;1.02;0.60;;;;;;;;;;5085551;28;20099;-66
2021/01/18 07:24:01;;;;;;;0.45;0.30;;;;;;;;;;5067266;28;20433;-66
2021/01/18 07:26:49;;;;;;;0.45;0.35;;;;;;;;;;5072689;28;20565;-66
2021/01/18 07:29:18;;;;;;;0.45;0.45;;;;;;;;;;5088363;28;20028;-65
2021/01/18 07:31:45;;;;;;;4.03;0.73;;;;;;;;;;5076893;28;20483;-66
2021/01/18 07:34:15;;;;;;;1.85;0.60;;;;;;;;;;5070567;28;20513;-67
2021/01/18 07:36:42;;;;;;;1.20;0.50;;;;;;;;;;5069111;28;20392;-67
2021/01/18 07:39:27;;;;;;;3.03;1.08;;;;;;;;;;5071400;28;20401;-66
2021/01/18 07:41:53;;;;;;;0.80;0.45;;;;;;;;;;5070452;28;20016;-66
2021/01/18 07:44:40;;;;;;;1.80;0.60;;;;;;;;;;5087398;28;20466;-66
2021/01/18 07:47:10;;;;;;;0.47;0.43;;;;;;;;;;5089503;28;20052;-66
2021/01/18 07:49:37;;;;;;;0.50;0.50;;;;;;;;;;5089029;28;20024;-66
2021/01/18 07:52:13;;;;;;;0.80;0.50;;;;;;;;;;5085756;28;20026;-67
2021/01/18 07:54:39;;;;;;;1.55;0.90;;;;;;;;;;5079930;28;20082;-67
2021/01/18 07:57:24;;;;;;;1.02;0.52;;;;;;;;;;5065597;28;20029;-68
2021/01/18 07:59:51;;;;;;;1.27;0.85;;;;;;;;;;5067650;28;20112;-67
2021/01/18 08:02:23;;;;;;;1.38;0.35;;;;;;;;;;5075236;28;20040;-67
2021/01/18 08:04:50;;;;;;;0.95;0.70;;;;;;;;;;5075988;28;20036;-67
2021/01/18 08:07:18;;;;;;;2.50;0.60;;;;;;;;;;5040116;28;20036;-67
2021/01/18 08:09:53;;;;;;;1.70;0.45;;;;;;;;;;5062164;28;20028;-68
2021/01/18 08:12:30;;;;;;;2.35;0.70;;;;;;;;;;5072322;28;20030;-67
2021/01/18 08:14:56;;;;;;;0.63;0.63;;;;;;;;;;5074338;28;20058;-68
2021/01/18 08:17:22;;;;;;;1.45;1.10;;;;;;;;;;5071847;28;20113;-67
2021/01/18 08:20:07;;;;;;;2.28;0.90;;;;;;;;;;5073772;28;20414;-67
2021/01/18 08:22:33;;;;;;;0.90;0.60;;;;;;;;;;5065311;28;20044;-69
2021/01/18 08:24:59;;;;;;;1.15;0.60;;;;;;;;;;5076320;28;20077;-69
2021/01/18 08:27:42;;;;;;;1.10;1.10;;;;;;;;;;5067487;28;20047;-68
2021/01/18 08:30:21;;;;;;;1.55;1.00;;;;;;;;;;5075256;28;20036;-68
2021/01/18 08:32:57;;;;;;;1.05;0.70;;;;;;;;;;5072616;28;20043;-68
2021/01/18 08:35:34;;;;;;;1.65;0.60;;;;;;;;;;5067624;28;20489;-68
2021/01/18 08:38:02;;;;;;;1.05;0.70;;;;;;;;;;5070703;28;20029;-68
2021/01/18 08:40:48;;;;;;;2.05;1.05;;;;;;;;;;5069213;28;20559;-67
2021/01/18 08:43:15;;;;;;;0.95;0.60;;;;;;;;;;5074425;28;20040;-66
2021/01/18 08:45:42;;;;;;;0.95;0.60;;;;;;;;;;5072739;28;20032;-67
2021/01/18 08:48:13;;;;;;;1.25;0.75;;;;;;;;;;5074079;28;20163;-66
2021/01/18 08:50:44;;;;;;;3.97;1.67;;;;;;;;;;5071667;28;20032;-67
2021/01/18 08:53:26;;;;;;;4.90;2.58;;;;;;;;;;5072620;28;20434;-68
2021/01/18 08:55:56;;;;;;;6.60;2.05;;;;;;;;;;5072236;28;20060;-68
2021/01/18 08:58:37;;;;;;;2.55;1.55;;;;;;;;;;5073370;28;20102;-67
2021/01/18 09:01:05;;;;;;;3.33;1.25;;;;;;;;;;5075385;28;20131;-68
2021/01/18 09:03:31;;;;;;;4.50;1.95;;;;;;;;;;5067405;28;20024;-67
2021/01/18 09:05:59;;;;;;;3.60;1.30;;;;;;;;;;5067029;28;20166;-67
2021/01/18 09:08:26;;;;;;;1.67;1.58;;;;;;;;;;5068388;28;20562;-67
2021/01/18 09:10:53;;;;;;;2.45;0.95;;;;;;;;;;5068870;28;20042;-66
2021/01/18 09:13:20;;;;;;;3.00;1.30;;;;;;;;;;5066770;28;20059;-67
2021/01/18 09:15:47;;;;;;;6.20;2.28;;;;;;;;;;5071124;28;20032;-67
2021/01/18 09:18:13;;;;;;;2.47;1.38;;;;;;;;;;5070676;28;20096;-66
2021/01/18 09:20:40;;;;;;;5.03;1.60;;;;;;;;;;5066173;28;20400;-68
2021/01/18 09:23:07;;;;;;;1.83;1.58;;;;;;;;;;5071320;28;20683;-67
2021/01/18 09:25:34;;;;;;;3.80;1.30;;;;;;;;;;5075554;28;20093;-67
2021/01/18 09:28:04;;;;;;;2.45;1.05;;;;;;;;;;5066036;28;20410;-67
2021/01/18 09:30:30;;;;;;;2.05;1.20;;;;;;;;;;5065543;28;20106;-71
2021/01/18 09:32:57;;;;;;;3.67;1.77;;;;;;;;;;5069595;28;20032;-67
2021/01/18 09:35:23;;;;;;;1.13;0.80;;;;;;;;;;5076923;28;20031;-67
2021/01/18 09:37:50;;;;;;;2.50;1.25;;;;;;;;;;5068304;28;20068;-67
2021/01/18 09:40:17;;;;;;;2.80;1.65;;;;;;;;;;5070752;28;20032;-66
2021/01/18 09:42:46;;;;;;;1.63;0.80;;;;;;;;;;5069958;28;20056;-66
2021/01/18 09:45:12;;;;;;;2.03;1.77;;;;;;;;;;5066130;28;20044;-66
2021/01/18 09:47:38;;;;;;;1.92;1.38;;;;;;;;;;5066523;28;20087;-67
2021/01/18 09:50:11;;;;;;;1.10;1.00;;;;;;;;;;5074043;28;20024;-66
2021/01/18 09:52:44;;;;;;;2.35;1.13;;;;;;;;;;5072266;28;20568;-68
2021/01/18 09:55:11;;;;;;;5.93;1.05;;;;;;;;;;5074459;28;20042;-71
2021/01/18 09:57:39;;;;;;;2.00;1.52;;;;;;;;;;5069730;28;20075;-67
2021/01/18 10:00:06;;;;;;;1.30;1.17;;;;;;;;;;5073134;28;20036;-65
2021/01/18 10:02:35;;;;;;;2.83;1.00;;;;;;;;;;5071250;28;20162;-66
2021/01/18 10:05:01;;;;;;;1.42;1.30;;;;;;;;;;5070398;28;20058;-65
2021/01/18 10:07:28;;;;;;;2.40;1.73;;;;;;;;;;5068412;28;20032;-65
2021/01/18 10:09:55;;;;;;;1.42;1.33;;;;;;;;;;5070351;28;20043;-65
2021/01/18 10:12:24;;;;;;;2.22;1.48;;;;;;;;;;5074751;28;20450;-66
2021/01/18 10:14:51;;;;;;;1.77;1.13;;;;;;;;;;5076953;28;20044;-65
2021/01/18 10:17:18;;;;;;;4.60;1.50;;;;;;;;;;5067804;28;20453;-64
2021/01/18 10:19:44;;;;;;;2.70;1.38;;;;;;;;;;5073827;28;20044;-66
2021/01/18 10:22:17;;;;;;;3.83;1.75;;;;;;;;;;5069297;28;20040;-66
2021/01/18 10:24:53;;;;;;;4.32;1.83;;;;;;;;;;5072398;28;20044;-66
2021/01/18 10:27:24;;;;;;;2.63;1.95;;;;;;;;;;5071354;28;20075;-65
2021/01/18 10:29:50;;;;;;;3.65;1.30;;;;;;;;;;5074594;28;20036;-66
2021/01/18 10:32:16;;;;;;;1.65;1.38;;;;;;;;;;5069642;28;20515;-66
2021/01/18 10:34:42;;;;;;;3.95;1.30;;;;;;;;;;5076448;28;20032;-71
2021/01/18 10:37:12;;;;;;;2.17;1.38;;;;;;;;;;5072306;28;20044;-66
2021/01/18 10:39:39;;;;;;;2.92;1.98;;;;;;;;;;5072463;28;20036;-66
2021/01/18 10:42:07;;;;;;;2.47;1.50;;;;;;;;;;5071256;28;20028;-66
2021/01/18 10:44:34;;;;;;;1.67;1.10;;;;;;;;;;5074798;28;20040;-66
2021/01/18 10:47:01;;;;;;;1.20;1.15;;;;;;;;;;5075511;28;20372;-65
2021/01/18 10:49:28;;;;;;;10.95;2.00;;;;;;;;;;5069743;28;20024;-66
2021/01/18 10:51:58;;;;;;;2.88;1.42;;;;;;;;;;5077166;28;20029;-66
2021/01/18 10:54:24;;;;;;;1.80;1.38;;;;;;;;;;5076605;28;20024;-65
2021/01/18 10:56:50;;;;;;;1.67;1.48;;;;;;;;;;5078434;28;20067;-66
2021/01/18 10:59:17;;;;;;;1.70;1.55;;;;;;;;;;5081861;28;20082;-66
2021/01/18 11:02:00;;;;;;;1.75;1.55;;;;;;;;;;5087645;28;20440;-66
2021/01/18 11:04:26;;;;;;;;;;;;;;;;;;5077623;28;20122;-66
2021/01/18 11:06:53;;;;;;;3.20;1.75;;;;;;;;;;5077262;28;20003;-66
2021/01/18 11:09:29;;;;;;;1.58;1.00;;;;;;;;;;5073112;28;20095;-66
2021/01/18 11:11:56;;;;;;;1.65;1.40;;;;;;;;;;5071979;28;20356;-66
2021/01/18 11:14:22;;;;;;;1.25;1.10;;;;;;;;;;5075461;28;20098;-66
2021/01/18 11:16:55;;;;;;;1.45;1.13;;;;;;;;;;5074046;28;20040;-66
2021/01/18 11:19:23;;;;;;;1.25;1.15;;;;;;;;;;5090765;28;20031;-66
2021/01/18 11:21:49;;;;;;;1.50;1.40;;;;;;;;;;5075504;28;20063;-67
2021/01/18 11:24:15;;;;;;;3.33;1.38;;;;;;;;;;5083614;28;20525;-66
2021/01/18 11:26:41;;;;;;;1.27;0.90;;;;;;;;;;5090790;28;20044;-66
2021/01/18 11:29:08;;;;;;;5.28;0.93;;;;;;;;;;5091119;28;20024;-67
2021/01/18 11:31:34;;;;;;;0.70;0.70;;;;;;;;;;5079355;28;20636;-66
2021/01/18 11:34:01;;;;;;;2.33;0.98;;;;;;;;;;5081618;28;20127;-66
2021/01/18 11:36:27;;;;;;;0.70;0.70;;;;;;;;;;5089563;28;20035;-66
2021/01/18 11:38:55;;;;;;;3.20;1.67;;;;;;;;;;5083845;28;20494;-67
2021/01/18 11:41:21;;;;;;;2.20;1.63;;;;;;;;;;5070205;28;20059;-66
2021/01/18 11:43:47;;;;;;;3.97;0.70;;;;;;;;;;5071168;28;20032;-67
2021/01/18 11:46:19;;;;;;;4.53;1.70;;;;;;;;;;5072268;28;20048;-66
2021/01/18 11:48:45;;;;;;;1.55;1.45;;;;;;;;;;5078904;28;20024;-67
2021/01/18 11:51:12;;;;;;;2.00;1.13;;;;;;;;;;5081659;28;20097;-66
2021/01/18 11:53:38;;;;;;;0.82;0.82;;;;;;;;;;5079047;28;20047;-67
2021/01/18 11:56:04;;;;;;;4.30;1.13;;;;;;;;;;5081253;28;20021;-67
2021/01/18 11:58:31;;;;;;;1.42;1.08;;;;;;;;;;5080556;28;20111;-66
2021/01/18 12:00:57;;;;;;;2.70;0.98;;;;;;;;;;5080157;28;20074;-66
2021/01/18 12:03:24;;;;;;;1.00;0.77;;;;;;;;;;5079078;28;20025;-66
2021/01/18 12:05:50;;;;;;;1.50;1.40;;;;;;;;;;5077865;28;20115;-66
2021/01/18 12:08:17;;;;;;;1.08;0.75;;;;;;;;;;5081719;28;20039;-66
2021/01/18 12:10:43;;;;;;;1.67;1.02;;;;;;;;;;5091366;28;20024;-66
2021/01/18 12:13:09;;;;;;;3.05;0.93;;;;;;;;;;5090743;28;20047;-67
2021/01/18 12:15:35;;;;;;;0.68;0.60;;;;;;;;;;5090077;28;20089;-66
2021/01/18 12:18:02;;;;;;;2.13;0.70;;;;;;;;;;5090167;28;20542;-66
2021/01/18 12:20:28;;;;;;;2.88;0.95;;;;;;;;;;5090102;28;20067;-66
2021/01/18 12:22:55;;;;;;;0.98;0.88;;;;;;;;;;5084180;28;20032;-66
2021/01/18 12:25:22;;;;;;;1.33;0.88;;;;;;;;;;5078989;28;20035;-65
2021/01/18 12:27:50;;;;;;;2.28;0.85;;;;;;;;;;5077011;28;20046;-66
2021/01/18 12:30:17;;;;;;;1.13;0.85;;;;;;;;;;5077508;28;20024;-66
2021/01/18 12:32:43;;;;;;;2.13;1.00;;;;;;;;;;5077097;28;20090;-66
2021/01/18 12:35:10;;;;;;;0.80;0.77;;;;;;;;;;5077685;28;20070;-65
2021/01/18 12:37:36;;;;;;;0.70;0.70;;;;;;;;;;5074211;28;20025;-65
2021/01/18 12:40:03;;;;;;;1.00;0.95;;;;;;;;;;5082502;28;20037;-65
2021/01/18 12:42:29;;;;;;;1.65;1.55;;;;;;;;;;5056914;28;20365;-66
2021/01/18 12:44:56;;;;;;;0.70;0.60;;;;;;;;;;5077928;28;20024;-67
2021/01/18 12:47:22;;;;;;;1.00;0.90;;;;;;;;;;5077458;28;20059;-66
2021/01/18 12:49:48;;;;;;;2.35;0.60;;;;;;;;;;5071974;28;20082;-66
2021/01/18 12:52:14;;;;;;;1.30;0.88;;;;;;;;;;5068743;28;20043;-65
2021/01/18 12:54:40;;;;;;;0.88;0.88;;;;;;;;;;5067740;28;20036;-65
2021/01/18 12:57:06;;;;;;;1.50;0.90;;;;;;;;;;5070355;28;20023;-66
2021/01/18 12:59:32;;;;;;;2.38;0.82;;;;;;;;;;5070229;28;20091;-65
2021/01/18 13:01:58;;;;;;;1.83;0.73;;;;;;;;;;5076407;28;20062;-66
2021/01/18 13:04:24;;;;;;;1.48;0.70;;;;;;;;;;5085320;28;20031;-65
2021/01/18 13:06:50;;;;;;;1.30;1.20;;;;;;;;;;5065276;28;20040;-66
2021/01/18 13:09:18;;;;;;;2.33;0.73;;;;;;;;;;5068725;28;20044;-64
2021/01/18 13:11:48;;;;;;;1.80;1.00;;;;;;;;;;5070760;28;20535;-66
2021/01/18 13:14:15;;;;;;;1.15;0.65;;;;;;;;;;5069042;28;20104;-65
2021/01/18 13:16:41;;;;;;;1.38;0.85;;;;;;;;;;5068110;28;20032;-66
2021/01/18 13:19:07;;;;;;;2.50;1.00;;;;;;;;;;5069984;28;20379;-65
2021/01/18 13:21:33;;;;;;;1.45;1.10;;;;;;;;;;5075014;28;20028;-66
2021/01/18 13:23:59;;;;;;;2.90;0.80;;;;;;;;;;5060026;28;20040;-66
2021/01/18 13:26:25;;;;;;;1.17;1.00;;;;;;;;;;5072648;28;20033;-65
2021/01/18 13:28:52;;;;;;;1.80;1.13;;;;;;;;;;5069379;28;20020;-66
2021/01/18 13:31:19;;;;;;;1.75;1.30;;;;;;;;;;5068716;28;20037;-65
2021/01/18 13:33:49;;;;;;;3.67;1.60;;;;;;;;;;5071802;28;20024;-65
2021/01/18 13:36:19;;;;;;;1.17;1.00;;;;;;;;;;5068903;28;20025;-66
2021/01/18 13:38:45;;;;;;;1.33;1.02;;;;;;;;;;5078178;28;20040;-66
2021/01/18 13:41:15;;;;;;;1.75;1.30;;;;;;;;;;5084600;28;20040;-66
2021/01/18 13:43:41;;;;;;;1.63;1.10;;;;;;;;;;5069105;28;20043;-67
2021/01/18 13:46:10;;;;;;;1.92;0.77;;;;;;;;;;5069448;28;20052;-66
2021/01/18 13:48:36;;;;;;;1.05;0.90;;;;;;;;;;5067888;28;20032;-67
2021/01/18 13:51:02;;;;;;;3.35;1.25;;;;;;;;;;5069258;28;20505;-66
2021/01/18 13:53:28;;;;;;;2.75;2.08;;;;;;;;;;5068162;28;20041;-66
2021/01/18 13:55:54;;;;;;;2.08;0.80;;;;;;;;;;5071278;28;20095;-67
2021/01/18 13:58:20;;;;;;;2.75;1.15;;;;;;;;;;5076636;28;20530;-65
2021/01/18 14:00:46;;;;;;;1.92;1.05;;;;;;;;;;5073399;28;20032;-66
2021/01/18 14:03:13;;;;;;;1.15;1.05;;;;;;;;;;5068570;28;20040;-66
2021/01/18 14:05:42;;;;;;;1.52;0.80;;;;;;;;;;5052879;28;20490;-66
2021/01/18 14:08:08;;;;;;;3.33;1.00;;;;;;;;;;5068122;28;20047;-66
2021/01/18 14:10:34;;;;;;;0.82;0.82;;;;;;;;;;5067783;28;20417;-66
2021/01/18 14:13:00;;;;;;;1.60;1.50;;;;;;;;;;5069496;28;20028;-67
2021/01/18 14:15:26;;;;;;;3.60;1.48;;;;;;;;;;5067620;28;20040;-66
2021/01/18 14:17:53;;;;;;;2.05;1.10;;;;;;;;;;5069053;28;20036;-66
2021/01/18 14:20:19;;;;;;;5.47;1.30;;;;;;;;;;5071068;28;20093;-65
2021/01/18 14:22:45;;;;;;;2.10;1.73;;;;;;;;;;5089135;28;20032;-67
2021/01/18 14:25:12;;;;;;;0.85;0.82;;;;;;;;;;5088912;28;20032;-67
2021/01/18 14:27:44;;;;;;;1.88;1.10;;;;;;;;;;5088165;28;20042;-72
2021/01/18 14:30:11;;;;;;;2.75;1.02;;;;;;;;;;5075375;28;20540;-67
2021/01/18 14:32:37;;;;;;;2.70;1.30;;;;;;;;;;5086846;28;20039;-66
2021/01/18 14:35:03;;;;;;;1.42;1.33;;;;;;;;;;5086737;28;20073;-67
2021/01/18 14:37:30;;;;;;;1.55;1.45;;;;;;;;;;5079053;28;20024;-67
2021/01/18 14:39:56;;;;;;;1.05;0.93;;;;;;;;;;5088792;28;20028;-67
2021/01/18 14:42:23;;;;;;;0.80;0.80;;;;;;;;;;5087358;28;20032;-66
2021/01/18 14:44:49;;;;;;;5.05;1.60;;;;;;;;;;5088479;28;20039;-66
2021/01/18 14:47:15;;;;;;;1.73;1.33;;;;;;;;;;5087804;28;20044;-66
2021/01/18 14:49:41;;;;;;;0.90;0.80;;;;;;;;;;5088054;28;20502;-66
2021/01/18 14:52:10;;;;;;;2.35;1.73;;;;;;;;;;5088797;28;20414;-67